sensor_id;sensor_type;location;lat;lon;timestamp;P1;durP1;ratioP1;P2;durP2;ratioP2
10977;SDS011;5542;48.272;10.794;2022-11-15T00:00:55;3.40;;;3.10;;
10977;SDS011;5542;48.272;10.794;2022-11-15T00:03:23;3.33;;;3.03;;
10977;SDS011;5542;48.272;10.794;2022-11-15T00:05:52;3.15;;;2.85;;
10977;SDS011;5542;48.272;10.794;2022-11-15T00:08:18;3.80;;;3.17;;
10977;SDS011;5542;48.272;10.794;2022-11-15T00:10:53;3.72;;;3.42;;
10977;SDS011;5542;48.272;10.794;2022-11-15T00:13:20;3.67;;;3.33;;
10977;SDS011;5542;48.272;10.794;2022-11-15T00:15:46;3.90;;;3.50;;
10977;SDS011;5542;48.272;10.794;2022-11-15T00:18:13;3.60;;;3.30;;
10977;SDS011;5542;48.272;10.794;2022-11-15T00:20:41;3.85;;;3.15;;
10977;SDS011;5542;48.272;10.794;2022-11-15T00:23:09;3.33;;;3.03;;
10977;SDS011;5542;48.272;10.794;2022-11-15T00:25:36;3.20;;;2.90;;
10977;SDS011;5542;48.272;10.794;2022-11-15T00:28:02;4.05;;;3.38;;
10977;SDS011;5542;48.272;10.794;2022-11-15T00:30:29;4.25;;;3.13;;
10977;SDS011;5542;48.272;10.794;2022-11-15T00:32:56;3.40;;;3.10;;
10977;SDS011;5542;48.272;10.794;2022-11-15T00:35:22;3.50;;;3.13;;
10977;SDS011;5542;48.272;10.794;2022-11-15T00:37:49;3.55;;;3.25;;
10977;SDS011;5542;48.272;10.794;2022-11-15T00:40:17;3.20;;;2.90;;
10977;SDS011;5542;48.272;10.794;2022-11-15T00:42:43;3.67;;;3.38;;
10977;SDS011;5542;48.272;10.794;2022-11-15T00:45:10;3.22;;;2.92;;
10977;SDS011;5542;48.272;10.794;2022-11-15T00:47:36;3.10;;;2.80;;
10977;SDS011;5542;48.272;10.794;2022-11-15T00:50:03;3.15;;;2.80;;
10977;SDS011;5542;48.272;10.794;2022-11-15T00:52:31;3.45;;;3.08;;
10977;SDS011;5542;48.272;10.794;2022-11-15T00:54:57;3.47;;;3.17;;
10977;SDS011;5542;48.272;10.794;2022-11-15T00:57:25;4.10;;;3.50;;
10977;SDS011;5542;48.272;10.794;2022-11-15T00:59:52;3.40;;;3.10;;
10977;SDS011;5542;48.272;10.794;2022-11-15T01:02:18;3.40;;;3.10;;
10977;SDS011;5542;48.272;10.794;2022-11-15T01:04:45;3.15;;;2.85;;
10977;SDS011;5542;48.272;10.794;2022-11-15T01:07:11;3.20;;;2.90;;
10977;SDS011;5542;48.272;10.794;2022-11-15T01:09:38;3.30;;;3.00;;
10977;SDS011;5542;48.272;10.794;2022-11-15T01:12:05;3.90;;;3.30;;
10977;SDS011;5542;48.272;10.794;2022-11-15T01:14:33;4.47;;;3.50;;
10977;SDS011;5542;48.272;10.794;2022-11-15T01:16:59;3.92;;;3.53;;
10977;SDS011;5542;48.272;10.794;2022-11-15T01:19:26;3.45;;;3.15;;
10977;SDS011;5542;48.272;10.794;2022-11-15T01:21:52;3.60;;;3.30;;
10977;SDS011;5542;48.272;10.794;2022-11-15T01:24:19;3.50;;;3.17;;
10977;SDS011;5542;48.272;10.794;2022-11-15T01:26:45;3.28;;;2.97;;
10977;SDS011;5542;48.272;10.794;2022-11-15T01:29:12;3.15;;;2.85;;
10977;SDS011;5542;48.272;10.794;2022-11-15T01:31:40;3.00;;;2.73;;
10977;SDS011;5542;48.272;10.794;2022-11-15T01:34:06;3.05;;;2.83;;
10977;SDS011;5542;48.272;10.794;2022-11-15T01:36:33;2.70;;;2.50;;
10977;SDS011;5542;48.272;10.794;2022-11-15T01:38:59;2.80;;;2.60;;
10977;SDS011;5542;48.272;10.794;2022-11-15T01:41:27;2.78;;;2.58;;
10977;SDS011;5542;48.272;10.794;2022-11-15T01:43:56;3.90;;;3.50;;
10977;SDS011;5542;48.272;10.794;2022-11-15T01:46:28;3.40;;;3.10;;
10977;SDS011;5542;48.272;10.794;2022-11-15T01:48:59;3.50;;;3.20;;
10977;SDS011;5542;48.272;10.794;2022-11-15T01:51:28;3.45;;;3.15;;
10977;SDS011;5542;48.272;10.794;2022-11-15T01:53:58;4.63;;;3.80;;
10977;SDS011;5542;48.272;10.794;2022-11-15T01:56:28;4.60;;;4.07;;
10977;SDS011;5542;48.272;10.794;2022-11-15T01:58:58;4.95;;;3.97;;
10977;SDS011;5542;48.272;10.794;2022-11-15T02:01:27;4.97;;;3.85;;
10977;SDS011;5542;48.272;10.794;2022-11-15T02:03:57;4.33;;;3.83;;
10977;SDS011;5542;48.272;10.794;2022-11-15T02:06:29;4.35;;;3.47;;
10977;SDS011;5542;48.272;10.794;2022-11-15T02:08:56;3.47;;;3.17;;
10977;SDS011;5542;48.272;10.794;2022-11-15T02:11:24;3.25;;;2.95;;
10977;SDS011;5542;48.272;10.794;2022-11-15T02:13:51;3.35;;;3.05;;
10977;SDS011;5542;48.272;10.794;2022-11-15T02:16:20;2.90;;;2.70;;
10977;SDS011;5542;48.272;10.794;2022-11-15T02:18:55;3.22;;;2.92;;
10977;SDS011;5542;48.272;10.794;2022-11-15T02:21:28;3.40;;;3.10;;
10977;SDS011;5542;48.272;10.794;2022-11-15T02:27:23;3.22;;;2.80;;
10977;SDS011;5542;48.272;10.794;2022-11-15T02:30:27;3.03;;;2.72;;
10977;SDS011;5542;48.272;10.794;2022-11-15T02:33:01;3.25;;;2.95;;
10977;SDS011;5542;48.272;10.794;2022-11-15T02:35:40;2.50;;;2.30;;
10977;SDS011;5542;48.272;10.794;2022-11-15T02:38:13;2.67;;;2.47;;
10977;SDS011;5542;48.272;10.794;2022-11-15T02:40:46;3.33;;;3.03;;
10977;SDS011;5542;48.272;10.794;2022-11-15T02:43:21;3.60;;;3.20;;
10977;SDS011;5542;48.272;10.794;2022-11-15T02:46:13;3.78;;;3.00;;
10977;SDS011;5542;48.272;10.794;2022-11-15T02:48:44;4.65;;;3.00;;
10977;SDS011;5542;48.272;10.794;2022-11-15T02:51:11;3.27;;;2.97;;
10977;SDS011;5542;48.272;10.794;2022-11-15T02:53:39;3.33;;;3.00;;
10977;SDS011;5542;48.272;10.794;2022-11-15T02:56:07;3.38;;;3.08;;
10977;SDS011;5542;48.272;10.794;2022-11-15T02:58:42;3.03;;;2.75;;
10977;SDS011;5542;48.272;10.794;2022-11-15T03:01:24;2.70;;;2.50;;
10977;SDS011;5542;48.272;10.794;2022-11-15T03:04:02;2.67;;;2.47;;
10977;SDS011;5542;48.272;10.794;2022-11-15T03:06:40;2.90;;;2.60;;
10977;SDS011;5542;48.272;10.794;2022-11-15T03:09:16;5.05;;;2.97;;
10977;SDS011;5542;48.272;10.794;2022-11-15T03:11:56;3.65;;;3.20;;
10977;SDS011;5542;48.272;10.794;2022-11-15T03:14:28;3.42;;;3.13;;
10977;SDS011;5542;48.272;10.794;2022-11-15T03:17:01;3.30;;;3.00;;
10977;SDS011;5542;48.272;10.794;2022-11-15T03:19:33;3.35;;;3.05;;
10977;SDS011;5542;48.272;10.794;2022-11-15T03:22:06;3.90;;;3.50;;
10977;SDS011;5542;48.272;10.794;2022-11-15T03:24:37;3.15;;;2.92;;
10977;SDS011;5542;48.272;10.794;2022-11-15T03:27:05;3.08;;;2.78;;
10977;SDS011;5542;48.272;10.794;2022-11-15T03:29:33;3.25;;;3.00;;
10977;SDS011;5542;48.272;10.794;2022-11-15T03:32:07;3.53;;;3.17;;
10977;SDS011;5542;48.272;10.794;2022-11-15T03:34:40;4.45;;;3.15;;
10977;SDS011;5542;48.272;10.794;2022-11-15T03:37:11;2.63;;;2.42;;
10977;SDS011;5542;48.272;10.794;2022-11-15T03:39:40;2.90;;;2.60;;
10977;SDS011;5542;48.272;10.794;2022-11-15T03:42:11;3.10;;;2.90;;
10977;SDS011;5542;48.272;10.794;2022-11-15T03:44:45;3.00;;;2.70;;
10977;SDS011;5542;48.272;10.794;2022-11-15T03:47:20;2.47;;;2.28;;
10977;SDS011;5542;48.272;10.794;2022-11-15T03:49:50;2.78;;;2.55;;
10977;SDS011;5542;48.272;10.794;2022-11-15T03:52:18;2.40;;;2.20;;
10977;SDS011;5542;48.272;10.794;2022-11-15T03:54:50;2.70;;;2.50;;
10977;SDS011;5542;48.272;10.794;2022-11-15T03:57:18;2.50;;;2.30;;
10977;SDS011;5542;48.272;10.794;2022-11-15T03:59:44;2.60;;;2.35;;
10977;SDS011;5542;48.272;10.794;2022-11-15T04:02:11;2.77;;;2.57;;
10977;SDS011;5542;48.272;10.794;2022-11-15T04:04:39;2.88;;;2.65;;
10977;SDS011;5542;48.272;10.794;2022-11-15T04:07:06;2.65;;;2.45;;
10977;SDS011;5542;48.272;10.794;2022-11-15T04:09:32;2.70;;;2.50;;
10977;SDS011;5542;48.272;10.794;2022-11-15T04:12:19;3.08;;;2.70;;
10977;SDS011;5542;48.272;10.794;2022-11-15T04:14:55;2.33;;;2.20;;
10977;SDS011;5542;48.272;10.794;2022-11-15T04:17:33;2.80;;;2.40;;
10977;SDS011;5542;48.272;10.794;2022-11-15T04:20:01;3.20;;;2.90;;
10977;SDS011;5542;48.272;10.794;2022-11-15T04:22:45;2.78;;;2.58;;
10977;SDS011;5542;48.272;10.794;2022-11-15T04:25:29;2.83;;;2.63;;
10977;SDS011;5542;48.272;10.794;2022-11-15T04:27:56;2.58;;;2.38;;
10977;SDS011;5542;48.272;10.794;2022-11-15T04:30:22;2.63;;;2.42;;
10977;SDS011;5542;48.272;10.794;2022-11-15T04:32:49;3.45;;;3.10;;
10977;SDS011;5542;48.272;10.794;2022-11-15T04:35:17;4.22;;;3.65;;
10977;SDS011;5542;48.272;10.794;2022-11-15T04:37:43;3.80;;;3.40;;
10977;SDS011;5542;48.272;10.794;2022-11-15T04:40:10;3.58;;;3.22;;
10977;SDS011;5542;48.272;10.794;2022-11-15T04:42:37;3.72;;;3.33;;
10977;SDS011;5542;48.272;10.794;2022-11-15T04:45:03;4.60;;;4.00;;
10977;SDS011;5542;48.272;10.794;2022-11-15T04:47:30;4.60;;;3.80;;
10977;SDS011;5542;48.272;10.794;2022-11-15T04:49:57;3.85;;;3.53;;
10977;SDS011;5542;48.272;10.794;2022-11-15T04:52:25;4.00;;;3.65;;
10977;SDS011;5542;48.272;10.794;2022-11-15T04:54:51;4.25;;;3.85;;
10977;SDS011;5542;48.272;10.794;2022-11-15T04:57:18;3.80;;;3.40;;
10977;SDS011;5542;48.272;10.794;2022-11-15T04:59:45;3.22;;;2.92;;
10977;SDS011;5542;48.272;10.794;2022-11-15T05:02:12;3.08;;;2.78;;
10977;SDS011;5542;48.272;10.794;2022-11-15T05:04:38;3.05;;;2.75;;
10977;SDS011;5542;48.272;10.794;2022-11-15T05:07:04;3.00;;;2.80;;
10977;SDS011;5542;48.272;10.794;2022-11-15T05:09:32;3.33;;;3.03;;
10977;SDS011;5542;48.272;10.794;2022-11-15T05:11:58;3.00;;;2.80;;
10977;SDS011;5542;48.272;10.794;2022-11-15T05:14:25;3.05;;;2.75;;
10977;SDS011;5542;48.272;10.794;2022-11-15T05:16:52;3.00;;;2.80;;
10977;SDS011;5542;48.272;10.794;2022-11-15T05:19:18;2.92;;;2.53;;
10977;SDS011;5542;48.272;10.794;2022-11-15T05:21:45;3.05;;;2.85;;
10977;SDS011;5542;48.272;10.794;2022-11-15T05:24:11;3.20;;;2.90;;
10977;SDS011;5542;48.272;10.794;2022-11-15T05:26:39;2.50;;;2.30;;
10977;SDS011;5542;48.272;10.794;2022-11-15T05:29:08;2.67;;;2.47;;
10977;SDS011;5542;48.272;10.794;2022-11-15T05:31:36;3.22;;;2.85;;
10977;SDS011;5542;48.272;10.794;2022-11-15T05:34:06;2.87;;;2.67;;
10977;SDS011;5542;48.272;10.794;2022-11-15T05:36:33;3.10;;;2.80;;
10977;SDS011;5542;48.272;10.794;2022-11-15T05:39:04;3.33;;;3.03;;
10977;SDS011;5542;48.272;10.794;2022-11-15T05:41:32;3.40;;;3.10;;
10977;SDS011;5542;48.272;10.794;2022-11-15T05:44:03;2.83;;;2.35;;
10977;SDS011;5542;48.272;10.794;2022-11-15T05:46:33;2.60;;;2.40;;
10977;SDS011;5542;48.272;10.794;2022-11-15T05:49:03;2.50;;;2.30;;
10977;SDS011;5542;48.272;10.794;2022-11-15T05:51:33;2.55;;;2.35;;
10977;SDS011;5542;48.272;10.794;2022-11-15T05:54:00;2.50;;;2.30;;
10977;SDS011;5542;48.272;10.794;2022-11-15T05:56:28;3.03;;;2.83;;
10977;SDS011;5542;48.272;10.794;2022-11-15T05:58:55;2.63;;;2.38;;
10977;SDS011;5542;48.272;10.794;2022-11-15T06:01:25;3.05;;;2.47;;
10977;SDS011;5542;48.272;10.794;2022-11-15T06:03:53;2.40;;;2.20;;
10977;SDS011;5542;48.272;10.794;2022-11-15T06:06:20;2.03;;;1.92;;
10977;SDS011;5542;48.272;10.794;2022-11-15T06:08:47;2.53;;;2.33;;
10977;SDS011;5542;48.272;10.794;2022-11-15T06:11:13;2.13;;;1.92;;
10977;SDS011;5542;48.272;10.794;2022-11-15T06:13:40;3.72;;;2.08;;
10977;SDS011;5542;48.272;10.794;2022-11-15T06:16:07;2.38;;;2.17;;
10977;SDS011;5542;48.272;10.794;2022-11-15T06:18:35;1.90;;;1.80;;
10977;SDS011;5542;48.272;10.794;2022-11-15T06:21:02;2.50;;;2.30;;
10977;SDS011;5542;48.272;10.794;2022-11-15T06:23:31;2.60;;;2.40;;
10977;SDS011;5542;48.272;10.794;2022-11-15T06:25:58;2.60;;;2.40;;
10977;SDS011;5542;48.272;10.794;2022-11-15T06:28:27;2.40;;;2.20;;
10977;SDS011;5542;48.272;10.794;2022-11-15T06:30:54;2.40;;;2.20;;
10977;SDS011;5542;48.272;10.794;2022-11-15T06:33:21;2.13;;;2.03;;
10977;SDS011;5542;48.272;10.794;2022-11-15T06:35:49;2.00;;;1.90;;
10977;SDS011;5542;48.272;10.794;2022-11-15T06:38:15;2.33;;;2.00;;
10977;SDS011;5542;48.272;10.794;2022-11-15T06:40:42;2.60;;;2.40;;
10977;SDS011;5542;48.272;10.794;2022-11-15T06:43:08;2.50;;;2.30;;
10977;SDS011;5542;48.272;10.794;2022-11-15T06:45:35;3.58;;;3.20;;
10977;SDS011;5542;48.272;10.794;2022-11-15T06:48:02;4.13;;;3.60;;
10977;SDS011;5542;48.272;10.794;2022-11-15T06:50:28;4.53;;;3.47;;
10977;SDS011;5542;48.272;10.794;2022-11-15T06:52:58;3.72;;;3.20;;
10977;SDS011;5542;48.272;10.794;2022-11-15T06:55:27;4.83;;;3.07;;
10977;SDS011;5542;48.272;10.794;2022-11-15T06:57:53;3.60;;;3.30;;
10977;SDS011;5542;48.272;10.794;2022-11-15T07:00:20;3.88;;;3.15;;
10977;SDS011;5542;48.272;10.794;2022-11-15T07:02:47;3.40;;;3.10;;
10977;SDS011;5542;48.272;10.794;2022-11-15T07:05:14;3.40;;;3.10;;
10977;SDS011;5542;48.272;10.794;2022-11-15T07:07:41;4.18;;;3.70;;
10977;SDS011;5542;48.272;10.794;2022-11-15T07:10:09;4.72;;;4.22;;
10977;SDS011;5542;48.272;10.794;2022-11-15T07:12:36;9.40;;;7.17;;
10977;SDS011;5542;48.272;10.794;2022-11-15T07:15:02;6.72;;;5.88;;
10977;SDS011;5542;48.272;10.794;2022-11-15T07:17:30;7.18;;;6.45;;
10977;SDS011;5542;48.272;10.794;2022-11-15T07:19:56;7.90;;;6.10;;
10977;SDS011;5542;48.272;10.794;2022-11-15T07:22:23;6.60;;;5.65;;
10977;SDS011;5542;48.272;10.794;2022-11-15T07:24:49;5.75;;;4.90;;
10977;SDS011;5542;48.272;10.794;2022-11-15T07:27:17;6.20;;;4.80;;
10977;SDS011;5542;48.272;10.794;2022-11-15T07:29:44;5.20;;;4.70;;
10977;SDS011;5542;48.272;10.794;2022-11-15T07:32:10;5.47;;;4.87;;
10977;SDS011;5542;48.272;10.794;2022-11-15T07:34:37;4.35;;;3.95;;
10977;SDS011;5542;48.272;10.794;2022-11-15T07:37:04;4.60;;;4.10;;
10977;SDS011;5542;48.272;10.794;2022-11-15T07:39:30;4.13;;;3.72;;
10977;SDS011;5542;48.272;10.794;2022-11-15T07:41:57;4.40;;;4.00;;
10977;SDS011;5542;48.272;10.794;2022-11-15T07:44:38;4.15;;;3.80;;
10977;SDS011;5542;48.272;10.794;2022-11-15T07:47:05;4.60;;;4.13;;
10977;SDS011;5542;48.272;10.794;2022-11-15T07:49:31;4.50;;;4.10;;
10977;SDS011;5542;48.272;10.794;2022-11-15T07:51:58;4.45;;;4.05;;
10977;SDS011;5542;48.272;10.794;2022-11-15T07:54:25;5.03;;;4.53;;
10977;SDS011;5542;48.272;10.794;2022-11-15T07:56:51;7.43;;;5.00;;
10977;SDS011;5542;48.272;10.794;2022-11-15T07:59:18;5.82;;;4.55;;
10977;SDS011;5542;48.272;10.794;2022-11-15T08:01:46;5.88;;;4.80;;
10977;SDS011;5542;48.272;10.794;2022-11-15T08:04:13;5.10;;;4.60;;
10977;SDS011;5542;48.272;10.794;2022-11-15T08:06:40;4.25;;;3.80;;
10977;SDS011;5542;48.272;10.794;2022-11-15T08:09:06;4.32;;;3.92;;
10977;SDS011;5542;48.272;10.794;2022-11-15T08:11:33;6.05;;;4.50;;
10977;SDS011;5542;48.272;10.794;2022-11-15T08:13:59;5.05;;;3.78;;
10977;SDS011;5542;48.272;10.794;2022-11-15T08:16:26;4.88;;;4.38;;
10977;SDS011;5542;48.272;10.794;2022-11-15T08:18:54;6.90;;;5.40;;
10977;SDS011;5542;48.272;10.794;2022-11-15T08:21:20;5.10;;;4.60;;
10977;SDS011;5542;48.272;10.794;2022-11-15T08:23:48;5.07;;;4.03;;
10977;SDS011;5542;48.272;10.794;2022-11-15T08:26:15;3.80;;;3.50;;
10977;SDS011;5542;48.272;10.794;2022-11-15T08:28:41;4.80;;;4.20;;
10977;SDS011;5542;48.272;10.794;2022-11-15T08:31:12;4.38;;;3.97;;
10977;SDS011;5542;48.272;10.794;2022-11-15T08:33:40;4.30;;;3.90;;
10977;SDS011;5542;48.272;10.794;2022-11-15T08:36:10;4.10;;;3.70;;
10977;SDS011;5542;48.272;10.794;2022-11-15T08:38:39;3.47;;;3.17;;
10977;SDS011;5542;48.272;10.794;2022-11-15T08:41:06;3.80;;;3.30;;
10977;SDS011;5542;48.272;10.794;2022-11-15T08:43:32;3.65;;;3.35;;
10977;SDS011;5542;48.272;10.794;2022-11-15T08:45:59;3.28;;;2.97;;
10977;SDS011;5542;48.272;10.794;2022-11-15T08:48:26;3.50;;;2.75;;
10977;SDS011;5542;48.272;10.794;2022-11-15T08:50:53;2.90;;;2.70;;
10977;SDS011;5542;48.272;10.794;2022-11-15T08:53:21;3.55;;;3.00;;
10977;SDS011;5542;48.272;10.794;2022-11-15T08:55:48;3.20;;;2.90;;
10977;SDS011;5542;48.272;10.794;2022-11-15T08:58:15;2.70;;;2.50;;
10977;SDS011;5542;48.272;10.794;2022-11-15T09:00:41;3.33;;;3.05;;
10977;SDS011;5542;48.272;10.794;2022-11-15T09:03:08;3.22;;;2.92;;
10977;SDS011;5542;48.272;10.794;2022-11-15T09:05:35;3.17;;;2.85;;
10977;SDS011;5542;48.272;10.794;2022-11-15T09:08:02;3.08;;;2.70;;
10977;SDS011;5542;48.272;10.794;2022-11-15T09:10:31;3.35;;;3.05;;
10977;SDS011;5542;48.272;10.794;2022-11-15T09:12:57;4.10;;;3.70;;
10977;SDS011;5542;48.272;10.794;2022-11-15T09:15:24;4.70;;;4.18;;
10977;SDS011;5542;48.272;10.794;2022-11-15T09:17:51;2.80;;;2.60;;
10977;SDS011;5542;48.272;10.794;2022-11-15T09:20:17;3.25;;;2.95;;
10977;SDS011;5542;48.272;10.794;2022-11-15T09:22:44;3.85;;;3.00;;
10977;SDS011;5542;48.272;10.794;2022-11-15T09:25:10;3.50;;;2.97;;
10977;SDS011;5542;48.272;10.794;2022-11-15T09:27:38;3.38;;;2.78;;
10977;SDS011;5542;48.272;10.794;2022-11-15T09:30:06;3.78;;;2.60;;
10977;SDS011;5542;48.272;10.794;2022-11-15T09:32:33;3.00;;;2.75;;
10977;SDS011;5542;48.272;10.794;2022-11-15T09:35:00;2.65;;;2.45;;
10977;SDS011;5542;48.272;10.794;2022-11-15T09:37:27;2.92;;;2.72;;
10977;SDS011;5542;48.272;10.794;2022-11-15T09:39:54;3.22;;;2.72;;
10977;SDS011;5542;48.272;10.794;2022-11-15T09:42:24;2.92;;;2.67;;
10977;SDS011;5542;48.272;10.794;2022-11-15T09:45:09;3.97;;;2.55;;
10977;SDS011;5542;48.272;10.794;2022-11-15T09:47:46;2.55;;;2.13;;
10977;SDS011;5542;48.272;10.794;2022-11-15T09:50:28;2.42;;;2.22;;
10977;SDS011;5542;48.272;10.794;2022-11-15T09:53:01;3.03;;;2.72;;
10977;SDS011;5542;48.272;10.794;2022-11-15T09:55:32;3.20;;;2.70;;
10977;SDS011;5542;48.272;10.794;2022-11-15T09:58:09;3.15;;;2.85;;
10977;SDS011;5542;48.272;10.794;2022-11-15T10:00:46;2.92;;;2.70;;
10977;SDS011;5542;48.272;10.794;2022-11-15T10:03:18;2.80;;;2.60;;
10977;SDS011;5542;48.272;10.794;2022-11-15T10:05:52;2.53;;;2.33;;
10977;SDS011;5542;48.272;10.794;2022-11-15T10:11:21;3.13;;;2.60;;
10977;SDS011;5542;48.272;10.794;2022-11-15T10:13:51;2.42;;;2.22;;
10977;SDS011;5542;48.272;10.794;2022-11-15T10:16:28;3.13;;;2.30;;
10977;SDS011;5542;48.272;10.794;2022-11-15T10:19:23;2.23;;;2.10;;
10977;SDS011;5542;48.272;10.794;2022-11-15T10:22:00;7.10;;;3.88;;
10977;SDS011;5542;48.272;10.794;2022-11-15T10:24:39;3.60;;;3.25;;
10977;SDS011;5542;48.272;10.794;2022-11-15T10:27:09;3.28;;;3.00;;
10977;SDS011;5542;48.272;10.794;2022-11-15T10:29:42;3.78;;;3.38;;
10977;SDS011;5542;48.272;10.794;2022-11-15T10:32:12;4.27;;;3.60;;
10977;SDS011;5542;48.272;10.794;2022-11-15T10:34:40;4.38;;;3.97;;
10977;SDS011;5542;48.272;10.794;2022-11-15T10:37:07;5.07;;;3.90;;
10977;SDS011;5542;48.272;10.794;2022-11-15T10:39:34;3.70;;;3.40;;
10977;SDS011;5542;48.272;10.794;2022-11-15T10:42:14;3.28;;;2.97;;
10977;SDS011;5542;48.272;10.794;2022-11-15T10:44:43;4.90;;;3.55;;
10977;SDS011;5542;48.272;10.794;2022-11-15T10:47:23;3.60;;;3.30;;
10977;SDS011;5542;48.272;10.794;2022-11-15T10:49:53;3.47;;;3.17;;
10977;SDS011;5542;48.272;10.794;2022-11-15T10:52:26;3.63;;;3.33;;
10977;SDS011;5542;48.272;10.794;2022-11-15T10:54:55;3.60;;;3.30;;
10977;SDS011;5542;48.272;10.794;2022-11-15T10:57:26;3.22;;;2.97;;
10977;SDS011;5542;48.272;10.794;2022-11-15T10:59:56;4.05;;;3.65;;
10977;SDS011;5542;48.272;10.794;2022-11-15T11:02:30;4.27;;;3.63;;
10977;SDS011;5542;48.272;10.794;2022-11-15T11:04:59;3.60;;;3.30;;
10977;SDS011;5542;48.272;10.794;2022-11-15T11:07:27;4.20;;;3.80;;
10977;SDS011;5542;48.272;10.794;2022-11-15T11:09:56;4.05;;;3.70;;
10977;SDS011;5542;48.272;10.794;2022-11-15T11:12:29;4.10;;;3.70;;
10977;SDS011;5542;48.272;10.794;2022-11-15T11:14:57;3.60;;;3.30;;
10977;SDS011;5542;48.272;10.794;2022-11-15T11:17:28;3.88;;;3.50;;
10977;SDS011;5542;48.272;10.794;2022-11-15T11:20:04;3.28;;;2.97;;
10977;SDS011;5542;48.272;10.794;2022-11-15T11:22:38;3.15;;;2.88;;
10977;SDS011;5542;48.272;10.794;2022-11-15T11:25:19;3.00;;;2.80;;
10977;SDS011;5542;48.272;10.794;2022-11-15T11:27:57;2.50;;;2.30;;
10977;SDS011;5542;48.272;10.794;2022-11-15T11:30:34;4.80;;;2.90;;
10977;SDS011;5542;48.272;10.794;2022-11-15T11:33:15;2.97;;;2.70;;
10977;SDS011;5542;48.272;10.794;2022-11-15T11:35:46;4.30;;;3.13;;
10977;SDS011;5542;48.272;10.794;2022-11-15T11:38:24;2.42;;;2.22;;
10977;SDS011;5542;48.272;10.794;2022-11-15T11:41:07;5.55;;;3.60;;
10977;SDS011;5542;48.272;10.794;2022-11-15T11:43:46;4.55;;;3.78;;
10977;SDS011;5542;48.272;10.794;2022-11-15T11:46:27;4.13;;;3.08;;
10977;SDS011;5542;48.272;10.794;2022-11-15T11:49:08;2.95;;;2.75;;
10977;SDS011;5542;48.272;10.794;2022-11-15T11:51:36;2.58;;;2.38;;
10977;SDS011;5542;48.272;10.794;2022-11-15T11:54:09;2.80;;;2.60;;
10977;SDS011;5542;48.272;10.794;2022-11-15T11:56:41;2.97;;;2.57;;
10977;SDS011;5542;48.272;10.794;2022-11-15T11:59:10;2.80;;;2.60;;
10977;SDS011;5542;48.272;10.794;2022-11-15T12:01:45;3.88;;;3.10;;
10977;SDS011;5542;48.272;10.794;2022-11-15T12:04:14;2.83;;;2.63;;
10977;SDS011;5542;48.272;10.794;2022-11-15T12:06:46;3.50;;;2.70;;
10977;SDS011;5542;48.272;10.794;2022-11-15T12:09:17;2.97;;;2.78;;
10977;SDS011;5542;48.272;10.794;2022-11-15T12:11:51;3.05;;;2.78;;
10977;SDS011;5542;48.272;10.794;2022-11-15T12:14:25;2.80;;;2.60;;
10977;SDS011;5542;48.272;10.794;2022-11-15T12:16:57;2.70;;;2.50;;
10977;SDS011;5542;48.272;10.794;2022-11-15T12:19:26;3.17;;;2.60;;
10977;SDS011;5542;48.272;10.794;2022-11-15T12:21:55;3.33;;;2.67;;
10977;SDS011;5542;48.272;10.794;2022-11-15T12:24:27;2.10;;;2.00;;
10977;SDS011;5542;48.272;10.794;2022-11-15T12:26:59;2.92;;;2.30;;
10977;SDS011;5542;48.272;10.794;2022-11-15T12:29:32;2.20;;;2.10;;
10977;SDS011;5542;48.272;10.794;2022-11-15T12:32:03;2.60;;;2.40;;
10977;SDS011;5542;48.272;10.794;2022-11-15T12:34:36;2.58;;;2.38;;
10977;SDS011;5542;48.272;10.794;2022-11-15T12:40:19;2.90;;;2.42;;
10977;SDS011;5542;48.272;10.794;2022-11-15T12:42:58;2.03;;;1.92;;
10977;SDS011;5542;48.272;10.794;2022-11-15T12:45:28;1.98;;;1.88;;
10977;SDS011;5542;48.272;10.794;2022-11-15T12:47:57;2.38;;;2.22;;
10977;SDS011;5542;48.272;10.794;2022-11-15T12:51:02;2.65;;;2.45;;
10977;SDS011;5542;48.272;10.794;2022-11-15T12:53:31;2.20;;;2.10;;
10977;SDS011;5542;48.272;10.794;2022-11-15T12:56:09;2.30;;;1.97;;
10977;SDS011;5542;48.272;10.794;2022-11-15T12:58:55;1.77;;;1.67;;
10977;SDS011;5542;48.272;10.794;2022-11-15T13:04:25;2.00;;;1.90;;
10977;SDS011;5542;48.272;10.794;2022-11-15T13:06:56;2.50;;;2.28;;
10977;SDS011;5542;48.272;10.794;2022-11-15T13:18:37;2.00;;;1.83;;
10977;SDS011;5542;48.272;10.794;2022-11-15T13:21:16;2.40;;;2.20;;
10977;SDS011;5542;48.272;10.794;2022-11-15T13:24:08;2.38;;;2.17;;
10977;SDS011;5542;48.272;10.794;2022-11-15T13:26:38;1.90;;;1.80;;
10977;SDS011;5542;48.272;10.794;2022-11-15T13:29:12;1.67;;;1.55;;
10977;SDS011;5542;48.272;10.794;2022-11-15T13:31:42;1.20;;;1.20;;
10977;SDS011;5542;48.272;10.794;2022-11-15T13:34:17;1.50;;;1.40;;
10977;SDS011;5542;48.272;10.794;2022-11-15T13:36:50;2.05;;;1.95;;
10977;SDS011;5542;48.272;10.794;2022-11-15T13:39:25;2.70;;;2.50;;
10977;SDS011;5542;48.272;10.794;2022-11-15T13:41:53;2.70;;;2.20;;
10977;SDS011;5542;48.272;10.794;2022-11-15T13:44:20;2.80;;;2.60;;
10977;SDS011;5542;48.272;10.794;2022-11-15T13:46:48;2.58;;;2.40;;
10977;SDS011;5542;48.272;10.794;2022-11-15T13:49:14;3.10;;;2.43;;
10977;SDS011;5542;48.272;10.794;2022-11-15T13:51:42;2.20;;;2.10;;
10977;SDS011;5542;48.272;10.794;2022-11-15T13:54:16;3.10;;;2.60;;
10977;SDS011;5542;48.272;10.794;2022-11-15T13:56:47;3.00;;;2.72;;
10977;SDS011;5542;48.272;10.794;2022-11-15T13:59:19;2.05;;;1.95;;
10977;SDS011;5542;48.272;10.794;2022-11-15T14:01:51;2.70;;;2.25;;
10977;SDS011;5542;48.272;10.794;2022-11-15T14:04:19;2.55;;;2.38;;
10977;SDS011;5542;48.272;10.794;2022-11-15T14:06:49;2.55;;;2.35;;
10977;SDS011;5542;48.272;10.794;2022-11-15T14:12:24;2.58;;;2.38;;
10977;SDS011;5542;48.272;10.794;2022-11-15T14:14:52;2.90;;;2.60;;
10977;SDS011;5542;48.272;10.794;2022-11-15T14:17:20;3.10;;;2.90;;
10977;SDS011;5542;48.272;10.794;2022-11-15T14:19:58;2.97;;;2.65;;
10977;SDS011;5542;48.272;10.794;2022-11-15T14:22:26;3.30;;;2.75;;
10977;SDS011;5542;48.272;10.794;2022-11-15T14:25:04;2.55;;;2.35;;
10977;SDS011;5542;48.272;10.794;2022-11-15T14:27:34;8.73;;;6.88;;
10977;SDS011;5542;48.272;10.794;2022-11-15T14:30:01;7.15;;;5.63;;
10977;SDS011;5542;48.272;10.794;2022-11-15T14:32:29;4.65;;;4.25;;
10977;SDS011;5542;48.272;10.794;2022-11-15T14:35:09;3.70;;;3.30;;
10977;SDS011;5542;48.272;10.794;2022-11-15T14:37:40;4.50;;;3.53;;
10977;SDS011;5542;48.272;10.794;2022-11-15T14:40:07;3.00;;;2.63;;
10977;SDS011;5542;48.272;10.794;2022-11-15T14:42:37;2.40;;;2.20;;
10977;SDS011;5542;48.272;10.794;2022-11-15T14:45:04;2.50;;;2.30;;
10977;SDS011;5542;48.272;10.794;2022-11-15T14:47:38;3.70;;;3.33;;
10977;SDS011;5542;48.272;10.794;2022-11-15T14:50:04;4.30;;;3.90;;
10977;SDS011;5542;48.272;10.794;2022-11-15T14:52:31;3.08;;;2.88;;
10977;SDS011;5542;48.272;10.794;2022-11-15T14:55:00;2.85;;;2.50;;
10977;SDS011;5542;48.272;10.794;2022-11-15T14:57:27;2.60;;;2.40;;
10977;SDS011;5542;48.272;10.794;2022-11-15T14:59:55;3.53;;;3.22;;
10977;SDS011;5542;48.272;10.794;2022-11-15T15:02:23;3.03;;;2.83;;
10977;SDS011;5542;48.272;10.794;2022-11-15T15:04:52;2.40;;;2.20;;
10977;SDS011;5542;48.272;10.794;2022-11-15T15:07:19;2.20;;;2.00;;
10977;SDS011;5542;48.272;10.794;2022-11-15T15:09:46;2.53;;;2.30;;
10977;SDS011;5542;48.272;10.794;2022-11-15T15:12:14;3.85;;;3.55;;
10977;SDS011;5542;48.272;10.794;2022-11-15T15:14:43;3.10;;;2.90;;
10977;SDS011;5542;48.272;10.794;2022-11-15T15:17:11;2.70;;;2.50;;
10977;SDS011;5542;48.272;10.794;2022-11-15T15:19:38;2.92;;;2.70;;
10977;SDS011;5542;48.272;10.794;2022-11-15T15:22:05;3.33;;;3.03;;
10977;SDS011;5542;48.272;10.794;2022-11-15T15:24:31;5.00;;;3.80;;
10977;SDS011;5542;48.272;10.794;2022-11-15T15:26:58;3.88;;;3.47;;
10977;SDS011;5542;48.272;10.794;2022-11-15T15:29:24;3.30;;;3.00;;